^^
Your Local Weather - Clay, NY Station Historical Data
Daily Summary for March 30, 2017 Units:  Metric    English   Both
« Previous Day
Next Day »
Daily Weekly Monthly Yearly Custom
  High: Low: Average:
Temperature: 6.6 °C -3.8 °C 1.8 °C
Dew Point: 0.7 °C -7.2 °C -4.1 °C
Humidity: 92% 38% 69%
Wind Speed: 8km/h 0km/h 2.7km/h
Wind Gust: 17.7km/h - -
Wind- - East
Pressure: 1025.6 hPa 1017.5 hPa -
Precipitation: 5.59 mm    
Historical Graphs
 
 
Tabular Data for March 30, 2017
Time Temperature Dew Point Pressure Wind Wind Speed Wind Gust Humidity Rainfall Rate (Hourly) solar
00:02 -1.6 °C -3.9 °C 1024.6 hPa Calm     84% 0 mm 0 W/m2
00:08 -1.7 °C -4 °C 1024.3 hPa Calm     84% 0 mm 0 W/m2
00:14 -1.8 °C -4.2 °C 1024.3 hPa Calm     84% 0 mm 0 W/m2
00:20 -1.9 °C -4.3 °C 1024.3 hPa Calm     84% 0 mm 0 W/m2
00:26 -2.1 °C -4.4 °C 1024.3 hPa Calm     84% 0 mm 0 W/m2
00:32 -2.1 °C -4.4 °C 1024.3 hPa Calm     84% 0 mm 0 W/m2
00:38 -2.2 °C -4.3 °C 1024.3 hPa Calm     85% 0 mm 0 W/m2
00:44 -2.2 °C -4.4 °C 1024.3 hPa Calm     85% 0 mm 0 W/m2
00:50 -2.3 °C -4.3 °C 1024.3 hPa Calm     86% 0 mm 0 W/m2
00:56 -2.4 °C -4.6 °C 1024.3 hPa Calm     85% 0 mm 0 W/m2
01:02 -2.5 °C -4.5 °C 1023.9 hPa Calm     86% 0 mm 0 W/m2
01:08 -2.6 °C -4.6 °C 1023.9 hPa Calm     86% 0 mm 0 W/m2
01:14 -2.7 °C -4.7 °C 1023.9 hPa Calm     86% 0 mm 0 W/m2
01:20 -2.7 °C -4.7 °C 1023.9 hPa Calm     86% 0 mm 0 W/m2
01:26 -2.7 °C -4.7 °C 1023.9 hPa Calm   1.6 km/h 86% 0 mm 0 W/m2
01:32 -2.8 °C -4.8 °C 1023.9 hPa Calm     86% 0 mm 0 W/m2
01:38 -2.8 °C -4.8 °C 1023.9 hPa Calm     86% 0 mm 0 W/m2
01:46 -2.8 °C -4.7 °C 1023.9 hPa Calm     87% 0 mm 0 W/m2
01:52 -2.9 °C -4.8 °C 1023.9 hPa Calm     87% 0 mm 0 W/m2
01:58 -2.8 °C -4.7 °C 1023.9 hPa Calm     87% 0 mm 0 W/m2
02:04 -2.8 °C -4.7 °C 1023.9 hPa Calm     87% 0 mm 0 W/m2
02:10 -2.9 °C -4.8 °C 1023.9 hPa Calm     87% 0 mm 0 W/m2
02:16 -2.8 °C -4.7 °C 1024.3 hPa Calm     87% 0 mm 0 W/m2
02:22 -2.9 °C -4.6 °C 1024.3 hPa Calm     88% 0 mm 0 W/m2
02:28 -2.9 °C -4.7 °C 1023.9 hPa Calm     88% 0 mm 0 W/m2
02:34 -2.9 °C -4.6 °C 1023.9 hPa Calm     88% 0 mm 0 W/m2
02:40 -2.9 °C -4.6 °C 1024.3 hPa Calm     88% 0 mm 0 W/m2
02:46 -2.9 °C -4.7 °C 1024.3 hPa Calm     88% 0 mm 0 W/m2
02:52 -3 °C -4.7 °C 1024.3 hPa Calm     88% 0 mm 0 W/m2
02:58 -3.1 °C -4.8 °C 1024.3 hPa Calm     88% 0 mm 0 W/m2
03:04 -3.1 °C -4.8 °C 1024.3 hPa Calm     88% 0 mm 0 W/m2
03:10 -2.9 °C -4.7 °C 1024.3 hPa Calm     88% 0 mm 0 W/m2
03:16 -2.9 °C -4.5 °C 1024.3 hPa Calm     89% 0 mm 0 W/m2
03:22 -3.1 °C -4.6 °C 1024.3 hPa Calm     89% 0 mm 0 W/m2
03:28 -3.1 °C -4.7 °C 1024.3 hPa Calm     89% 0 mm 0 W/m2
03:34 -3.2 °C -4.8 °C 1024.3 hPa Calm     89% 0 mm 0 W/m2
03:40 -3.1 °C -4.6 °C 1024.3 hPa Calm     89% 0 mm 0 W/m2
03:46 -3.1 °C -4.7 °C 1024.3 hPa Calm     89% 0 mm 0 W/m2
03:52 -3.2 °C -4.8 °C 1024.6 hPa Calm     89% 0 mm 0 W/m2
03:58 -3.3 °C -4.9 °C 1024.6 hPa Calm     89% 0 mm 0 W/m2
04:04 -3.4 °C -5 °C 1024.6 hPa Calm     89% 0 mm 0 W/m2
04:10 -3.6 °C -5.1 °C 1024.6 hPa Calm     89% 0 mm 0 W/m2
04:16 -3.7 °C -5.2 °C 1024.6 hPa Calm     89% 0 mm 0 W/m2
04:22 -3.6 °C -5.2 °C 1024.9 hPa Calm     89% 0 mm 0 W/m2
04:28 -3.7 °C -5.2 °C 1024.9 hPa Calm     89% 0 mm 0 W/m2
04:34 -3.7 °C -5.3 °C 1024.9 hPa Calm     89% 0 mm 0 W/m2
04:42 -3.8 °C -5.4 °C 1024.9 hPa Calm     89% 0 mm 0 W/m2
04:48 -3.8 °C -5.4 °C 1024.9 hPa Calm     89% 0 mm 0 W/m2
04:54 -3.8 °C -5.4 °C 1024.9 hPa Calm     89% 0 mm 0 W/m2
05:00 -3.7 °C -5.3 °C 1024.9 hPa Calm     89% 0 mm 0 W/m2
05:06 -3.8 °C -5.3 °C 1025.3 hPa Calm     89% 0 mm 0 W/m2
05:12 -3.7 °C -5.2 °C 1025.3 hPa Calm     89% 0 mm 0 W/m2
05:18 -3.6 °C -5.1 °C 1025.3 hPa Calm     89% 0 mm 0 W/m2
05:24 -3.6 °C -5.1 °C 1025.3 hPa Calm     89% 0 mm 0 W/m2
05:30 -3.6 °C -5.2 °C 1025.3 hPa Calm     89% 0 mm 0 W/m2
05:36 -3.7 °C -5.3 °C 1025.3 hPa Calm     89% 0 mm 0 W/m2
05:42 -3.8 °C -5.3 °C 1025.3 hPa Calm     89% 0 mm 0 W/m2
05:48 -3.7 °C -5.3 °C 1025.6 hPa Calm     89% 0 mm 0 W/m2
05:54 -3.7 °C -5.2 °C 1025.6 hPa Calm     89% 0 mm 0 W/m2
06:00 -3.7 °C -5.3 °C 1025.6 hPa Calm     89% 0 mm 0 W/m2
06:06 -3.6 °C -5 °C 1025.6 hPa Calm     90% 0 mm 0 W/m2
06:12 -3.5 °C -4.9 °C 1025.6 hPa Calm     90% 0 mm 0 W/m2
06:18 -3.5 °C -4.9 °C 1025.3 hPa Calm     90% 0 mm 0 W/m2
06:24 -3.4 °C -4.8 °C 1025.3 hPa Calm     90% 0 mm 0 W/m2
06:30 -3.4 °C -4.8 °C 1025.6 hPa Calm     90% 0 mm 0 W/m2
06:36 -3.3 °C -4.7 °C 1025.6 hPa Calm     90% 0 mm 0 W/m2
06:42 -3.2 °C -4.6 °C 1025.6 hPa Calm     90% 0 mm 0 W/m2
06:48 -3.1 °C -4.4 °C 1025.6 hPa Calm     90% 0 mm 5 W/m2
06:54 -2.9 °C -4.3 °C 1025.6 hPa Calm     90% 0 mm 7 W/m2
07:00 -2.9 °C -4.3 °C 1025.6 hPa Calm     90% 0 mm 12 W/m2
07:06 -2.8 °C -4.2 °C 1025.6 hPa Calm     90% 0 mm 18 W/m2
07:12 -2.7 °C -4.1 °C 1025.6 hPa Calm     90% 0 mm 32 W/m2
07:18 -2.7 °C -4.1 °C 1025.6 hPa Calm     90% 0 mm 47 W/m2
07:24 -2.6 °C -4 °C 1025.6 hPa Calm     90% 0 mm 58 W/m2
07:30 -2.4 °C -3.8 °C 1025.3 hPa Calm     90% 0 mm 53 W/m2
07:36 -2.1 °C -3.6 °C 1025.3 hPa Calm   1.6 km/h 90% 0 mm 54 W/m2
07:42 -1.9 °C -3.4 °C 1024.9 hPa Calm     90% 0 mm 53 W/m2
07:48 -1.9 °C -3.4 °C 1025.3 hPa Calm     89% 0 mm 58 W/m2
07:54 -1.7 °C -3.4 °C 1025.3 hPa Calm     88% 0 mm 79 W/m2
08:00 -1.5 °C -3.4 °C 1025.3 hPa Calm   1.6 km/h 87% 0 mm 123 W/m2
08:06 -1.1 °C -3.3 °C 1025.3 hPa Calm   1.6 km/h 85% 0 mm 174 W/m2
08:12 -0.6 °C -3.4 °C 1024.9 hPa NE 1.6 km/h 4.8 km/h 81% 0 mm 206 W/m2
08:18 -0.3 °C -3.5 °C 1024.9 hPa ENE 1.6 km/h 6.4 km/h 79% 0 mm 192 W/m2
08:24 -0.1 °C -3.6 °C 1024.9 hPa NE 1.6 km/h 6.4 km/h 77% 0 mm 183 W/m2
08:30 0.1 °C -3.6 °C 1025.3 hPa ENE 1.6 km/h 3.2 km/h 76% 0 mm 229 W/m2
08:36 0.3 °C -3.6 °C 1024.9 hPa NNW 1.6 km/h 3.2 km/h 75% 0 mm 163 W/m2
08:42 0.6 °C -3.6 °C 1024.9 hPa NNW 1.6 km/h 1.6 km/h 74% 0 mm 149 W/m2
08:48 0.7 °C -3.4 °C 1024.9 hPa NNW 1.6 km/h 3.2 km/h 74% 0 mm 149 W/m2
08:54 0.8 °C -3.4 °C 1024.9 hPa North 1.6 km/h 4.8 km/h 73% 0 mm 171 W/m2
09:00 0.9 °C -3.6 °C 1024.9 hPa NNE 3.2 km/h 3.2 km/h 72% 0 mm 193 W/m2
09:06 1.1 °C -3.6 °C 1024.9 hPa NNE 3.2 km/h 3.2 km/h 71% 0 mm 199 W/m2
09:12 1.2 °C -3.9 °C 1024.9 hPa NNE 1.6 km/h 3.2 km/h 69% 0 mm 193 W/m2
09:18 1.3 °C -3.8 °C 1024.9 hPa NE 1.6 km/h 4.8 km/h 69% 0 mm 185 W/m2
09:24 1.2 °C -4.2 °C 1024.6 hPa ENE 3.2 km/h 4.8 km/h 67% 0 mm 195 W/m2
09:30 1.3 °C -4.3 °C 1024.9 hPa NE 3.2 km/h 4.8 km/h 66% 0 mm 220 W/m2
09:36 1.7 °C -3.9 °C 1024.6 hPa ENE 3.2 km/h 4.8 km/h 66% 0 mm 353 W/m2
09:42 2.3 °C -4.1 °C 1024.6 hPa NNE 4.8 km/h 6.4 km/h 63% 0 mm 496 W/m2
09:48 2.4 °C -4.8 °C 1024.6 hPa NE 4.8 km/h 11.3 km/h 59% 0 mm 445 W/m2
09:54 2.4 °C -4.8 °C 1024.6 hPa ENE 6.4 km/h 8 km/h 59% 0 mm 341 W/m2
10:00 2.5 °C -4.7 °C 1024.3 hPa East 4.8 km/h 4.8 km/h 59% 0 mm 299 W/m2
10:06 2.8 °C -5.2 °C 1024.3 hPa ENE 4.8 km/h 9.7 km/h 56% 0 mm 341 W/m2
10:12 2.9 °C -4.8 °C 1024.3 hPa NNE 4.8 km/h 4.8 km/h 57% 0 mm 302 W/m2
10:18 2.8 °C -5.3 °C 1024.3 hPa ESE 6.4 km/h 14.5 km/h 55% 0 mm 274 W/m2
10:24 2.7 °C -5.7 °C 1024.3 hPa ENE 6.4 km/h 8 km/h 54% 0 mm 287 W/m2
10:30 2.8 °C -5.9 °C 1024.3 hPa SE 6.4 km/h 12.9 km/h 53% 0 mm 330 W/m2
10:36 3.1 °C -5.4 °C 1024.3 hPa ENE 6.4 km/h 12.9 km/h 54% 0 mm 359 W/m2
10:42 3.2 °C -5.9 °C 1024.3 hPa ESE 6.4 km/h 6.4 km/h 51% 0 mm 338 W/m2
10:48 3.3 °C -6.2 °C 1023.9 hPa East 4.8 km/h 8 km/h 50% 0 mm 420 W/m2
10:54 3.4 °C -6.6 °C 1023.9 hPa ESE 6.4 km/h 6.4 km/h 48% 0 mm 540 W/m2
11:00 3.7 °C -5.5 °C 1023.6 hPa ESE 6.4 km/h 6.4 km/h 51% 0 mm 840 W/m2
11:06 3.6 °C -6.7 °C 1023.6 hPa East 8 km/h 9.7 km/h 47% 0 mm 721 W/m2
11:12 4.3 °C -6.1 °C 1023.6 hPa NE 8 km/h 9.7 km/h 47% 0 mm 921 W/m2
11:18 4.4 °C -4.9 °C 1023.2 hPa SE 6.4 km/h 9.7 km/h 51% 0 mm 881 W/m2
11:24 4.7 °C -4.3 °C 1022.9 hPa East 6.4 km/h 9.7 km/h 52% 0 mm 700 W/m2
11:30 4.4 °C -4.4 °C 1023.2 hPa SE 8 km/h 16.1 km/h 53% 0 mm 610 W/m2
11:36 4.4 °C -5.6 °C 1023.2 hPa SE 6.4 km/h 16.1 km/h 48% 0 mm 621 W/m2
11:42 4.4 °C -6.2 °C 1023.2 hPa ESE 6.4 km/h 8 km/h 46% 0 mm 656 W/m2
11:48 4.6 °C -6.1 °C 1022.9 hPa ESE 8 km/h 11.3 km/h 46% 0 mm 707 W/m2
11:54 4.4 °C -5.6 °C 1022.9 hPa SE 6.4 km/h 11.3 km/h 48% 0 mm 659 W/m2
12:00 4.5 °C -5.6 °C 1022.6 hPa ESE 8 km/h 8 km/h 48% 0 mm 524 W/m2
12:06 4.7 °C -5.9 °C 1022.6 hPa East 6.4 km/h 9.7 km/h 46% 0 mm 517 W/m2
12:12 4.6 °C -6.1 °C 1022.6 hPa NE 8 km/h 8 km/h 46% 0 mm 510 W/m2
12:18 4.9 °C -4.1 °C 1022.9 hPa NE 6.4 km/h 8 km/h 52% 0 mm 664 W/m2
12:24 4.9 °C -6.6 °C 1022.9 hPa East 6.4 km/h 11.3 km/h 43% 0 mm 573 W/m2
12:30 5.2 °C -4.9 °C 1022.6 hPa ENE 6.4 km/h 8 km/h 48% 0 mm 512 W/m2
12:36 5.4 °C -5.6 °C 1022.2 hPa ESE 6.4 km/h 11.3 km/h 45% 0 mm 559 W/m2
12:42 5.4 °C -5.1 °C 1022.2 hPa ENE 4.8 km/h 6.4 km/h 47% 0 mm 645 W/m2
12:48 5.7 °C -5.1 °C 1022.2 hPa ESE 6.4 km/h 11.3 km/h 46% 0 mm 761 W/m2
12:54 5.7 °C -6.3 °C 1022.2 hPa NE 8 km/h 8 km/h 42% 0 mm 761 W/m2
13:00 6.1 °C -5.6 °C 1021.9 hPa North 6.4 km/h 6.4 km/h 43% 0 mm 666 W/m2
13:06 5.7 °C -6.2 °C 1021.9 hPa SE 8 km/h 16.1 km/h 42% 0 mm 603 W/m2
13:12 5.8 °C -5.6 °C 1022.2 hPa ENE 6.4 km/h 6.4 km/h 44% 0 mm 638 W/m2
13:18 5.9 °C -5.8 °C 1021.9 hPa SE 4.8 km/h 8 km/h 43% 0 mm 531 W/m2
13:24 5.9 °C -5.4 °C 1021.9 hPa ENE 4.8 km/h 11.3 km/h 44% 0 mm 517 W/m2
13:30 6.1 °C -5.3 °C 1021.9 hPa East 6.4 km/h 12.9 km/h 44% 0 mm 457 W/m2
13:36 5.9 °C -6.7 °C 1021.9 hPa East 6.4 km/h 12.9 km/h 40% 0 mm 436 W/m2
13:42 6.1 °C -7.2 °C 1021.9 hPa ENE 4.8 km/h 6.4 km/h 38% 0 mm 420 W/m2
13:48 6.5 °C -6.5 °C 1021.6 hPa East 4.8 km/h 9.7 km/h 39% 0 mm 362 W/m2
13:54 6.1 °C -6.5 °C 1021.6 hPa East 4.8 km/h 8 km/h 40% 0 mm 299 W/m2
14:00 6.2 °C -6.1 °C 1021.6 hPa NE 4.8 km/h 6.4 km/h 41% 0 mm 288 W/m2
14:06 6.1 °C -6.5 °C 1021.6 hPa NNE 4.8 km/h 6.4 km/h 40% 0 mm 301 W/m2
14:12 6.1 °C -6.2 °C 1021.6 hPa ESE 3.2 km/h 4.8 km/h 41% 0 mm 290 W/m2
14:14 6.2 °C -5.8 °C 1021.6 hPa SE 3.2 km/h 4.8 km/h 42% 0 mm 278 W/m2
14:20 6.3 °C -6.3 °C 1021.6 hPa SE 4.8 km/h 4.8 km/h 40% 0 mm 278 W/m2
14:26 6.3 °C -6.1 °C 1021.6 hPa South 3.2 km/h 4.8 km/h 41% 0 mm 274 W/m2
14:32 6.3 °C -6.3 °C 1021.6 hPa ESE 3.2 km/h 4.8 km/h 40% 0 mm 265 W/m2
14:38 6.2 °C -6.4 °C 1021.6 hPa SE 3.2 km/h 9.7 km/h 40% 0 mm 239 W/m2
14:44 6.3 °C -6.3 °C 1021.2 hPa SE 3.2 km/h 4.8 km/h 40% 0 mm 230 W/m2
14:50 6.3 °C -5.4 °C 1021.2 hPa SE 3.2 km/h 4.8 km/h 43% 0 mm 237 W/m2
14:56 6.3 °C -6.6 °C 1020.9 hPa ENE 3.2 km/h 4.8 km/h 39% 0 mm 237 W/m2
15:02 6.2 °C -6.7 °C 1020.9 hPa ESE 3.2 km/h 4.8 km/h 39% 0 mm 232 W/m2
15:08 6.4 °C -5.3 °C 1020.2 hPa ENE 3.2 km/h 4.8 km/h 43% 0 mm 211 W/m2
15:14 6.5 °C -5.5 °C 1020.2 hPa NE 3.2 km/h 4.8 km/h 42% 0 mm 188 W/m2
15:20 6.5 °C -5.2 °C 1020.2 hPa SSE 3.2 km/h 3.2 km/h 43% 0 mm 179 W/m2
15:26 6.4 °C -5.6 °C 1020.2 hPa East 4.8 km/h 4.8 km/h 42% 0 mm 183 W/m2
15:32 6.4 °C -5.6 °C 1020.2 hPa SE 3.2 km/h 4.8 km/h 42% 0 mm 172 W/m2
15:38 6.4 °C -4.1 °C 1020.2 hPa SSE 1.6 km/h 4.8 km/h 47% 0 mm 162 W/m2
15:44 6.6 °C -4.8 °C 1019.9 hPa SE 1.6 km/h 4.8 km/h 44% 0 mm 171 W/m2
15:50 6.5 °C -5.2 °C 1019.9 hPa ESE 3.2 km/h 3.2 km/h 43% 0 mm 163 W/m2
15:56 6.5 °C -5.2 °C 1019.9 hPa ENE 4.8 km/h 6.4 km/h 43% 0 mm 162 W/m2
16:02 6.5 °C -4.9 °C 1019.5 hPa ENE 3.2 km/h 4.8 km/h 44% 0 mm 160 W/m2
16:08 6.4 °C -4.7 °C 1019.5 hPa East 4.8 km/h 8 km/h 45% 0 mm 137 W/m2
16:14 6.4 °C -5.6 °C 1019.5 hPa ENE 4.8 km/h 4.8 km/h 42% 0 mm 135 W/m2
16:20 6.3 °C -5.7 °C 1019.2 hPa East 4.8 km/h 4.8 km/h 42% 0 mm 125 W/m2
16:26 6.3 °C -5.3 °C 1019.2 hPa East 4.8 km/h 8 km/h 43% 0 mm 105 W/m2
16:32 6.3 °C -5.4 °C 1018.8 hPa East 4.8 km/h 9.7 km/h 43% 0 mm 98 W/m2
16:38 6.3 °C -5.7 °C 1018.5 hPa NE 3.2 km/h 9.7 km/h 42% 0 mm 84 W/m2
16:44 6.3 °C -5.7 °C 1018.5 hPa NE 4.8 km/h 4.8 km/h 42% 0 mm 86 W/m2
16:50 6.2 °C -5.4 °C 1018.2 hPa ENE 4.8 km/h 4.8 km/h 43% 0 mm 72 W/m2
16:56 6.2 °C -5.4 °C 1018.2 hPa ENE 4.8 km/h 8 km/h 43% 0 mm 67 W/m2
17:02 6.2 °C -5.4 °C 1018.2 hPa East 3.2 km/h 8 km/h 43% 0 mm 63 W/m2
17:08 6.2 °C -5.8 °C 1018.2 hPa ENE 4.8 km/h 8 km/h 42% 0 mm 47 W/m2
17:14 6.2 °C -5.8 °C 1018.2 hPa NE 4.8 km/h 4.8 km/h 42% 0 mm 49 W/m2
17:20 6.2 °C -4.9 °C 1018.2 hPa NE 3.2 km/h 3.2 km/h 45% 0 mm 49 W/m2
17:26 6.2 °C -5.8 °C 1018.2 hPa ENE 3.2 km/h 6.4 km/h 42% 0 mm 46 W/m2
17:32 6.2 °C -5.2 °C 1018.2 hPa ENE 3.2 km/h 3.2 km/h 44% 0 mm 37 W/m2
17:38 6.2 °C -4.8 °C 1018.2 hPa NE 1.6 km/h 3.2 km/h 45% 0 mm 35 W/m2
17:44 6.2 °C -5.2 °C 1018.2 hPa NE 1.6 km/h 4.8 km/h 44% 0 mm 33 W/m2
17:50 6.2 °C -5.2 °C 1018.2 hPa East 1.6 km/h 1.6 km/h 44% 0 mm 25 W/m2
17:56 6.2 °C -4.9 °C 1018.2 hPa NNE 3.2 km/h 3.2 km/h 45% 0 mm 30 W/m2
18:02 6.2 °C -4.9 °C 1017.8 hPa ENE 1.6 km/h 4.8 km/h 45% 0 mm 21 W/m2
18:08 6.2 °C -4.6 °C 1017.8 hPa ENE 1.6 km/h 4.8 km/h 46% 0 mm 18 W/m2
18:14 6.2 °C -4.6 °C 1017.5 hPa ENE 1.6 km/h 1.6 km/h 46% 0 mm 16 W/m2
18:20 6.1 °C -4.7 °C 1017.5 hPa Calm     46% 0 mm 18 W/m2
18:26 6.2 °C -4.1 °C 1017.5 hPa Calm   3.2 km/h 48% 0 mm 18 W/m2
18:32 6.3 °C -5.1 °C 1017.5 hPa SE 1.6 km/h 4.8 km/h 44% 0 mm 16 W/m2
18:38 6.3 °C -5.1 °C 1017.5 hPa East 3.2 km/h 4.8 km/h 44% 0 mm 14 W/m2
18:44 6.3 °C -5.1 °C 1017.5 hPa SE 3.2 km/h 6.4 km/h 44% 0 mm 9 W/m2
18:50 6.3 °C -4.8 °C 1017.5 hPa ESE 3.2 km/h 4.8 km/h 45% 0 mm 5 W/m2
18:56 6.1 °C -3.3 °C 1017.8 hPa SE 6.4 km/h 17.7 km/h 51% 0 mm 5 W/m2
19:02 6 °C -3.1 °C 1017.8 hPa SSE 8 km/h 8 km/h 52% 0 mm 0 W/m2
19:08 5.8 °C -2.5 °C 1017.8 hPa SE 6.4 km/h 8 km/h 55% 0 mm 0 W/m2
19:14 5.8 °C -2.3 °C 1018.2 hPa SE 4.8 km/h 8 km/h 56% 0 mm 0 W/m2
19:20 5.8 °C -2.1 °C 1018.2 hPa SE 6.4 km/h 6.4 km/h 57% 0 mm 0 W/m2
19:26 5.7 °C -2.4 °C 1018.2 hPa ENE 3.2 km/h 6.4 km/h 56% 0 mm 0 W/m2
19:32 5.7 °C -2.4 °C 1018.5 hPa ENE 3.2 km/h 3.2 km/h 56% 0 mm 0 W/m2
19:38 5.5 °C -1.7 °C 1018.5 hPa SSE 1.6 km/h 4.8 km/h 60% 0 mm 0 W/m2
19:44 5.3 °C -1.2 °C 1018.5 hPa East 4.8 km/h 8 km/h 63% 0 mm 0 W/m2
19:50 4.9 °C -0.3 °C 1018.8 hPa East 4.8 km/h 4.8 km/h 69% 0 mm 0 W/m2
19:56 4.4 °C -0.2 °C 1019.2 hPa East 3.2 km/h 4.8 km/h 72% 0 mm 0 W/m2
20:02 4 °C -0.2 °C 1018.8 hPa ENE 3.2 km/h 3.2 km/h 74% 0 mm 0 W/m2
20:08 3.7 °C -0.1 °C 1018.5 hPa ESE 3.2 km/h 3.2 km/h 76% 1.52 mm 0 W/m2
20:14 3.6 °C 0.3 °C 1018.5 hPa ENE 3.2 km/h 3.2 km/h 79% 1.52 mm 0 W/m2
20:20 3.5 °C 0.4 °C 1018.5 hPa East 1.6 km/h 3.2 km/h 80% 1.52 mm 0 W/m2
20:26 3.4 °C 0.3 °C 1018.5 hPa East 3.2 km/h 8 km/h 80% 1.27 mm 0 W/m2
20:32 3.4 °C 0.5 °C 1018.5 hPa East 4.8 km/h 4.8 km/h 81% 0 mm 0 W/m2
20:38 3.3 °C 0.6 °C 1018.2 hPa East 3.2 km/h 4.8 km/h 82% 0 mm 0 W/m2
20:50 3.2 °C 0.6 °C 1018.2 hPa SE 3.2 km/h 3.2 km/h 83% 0 mm 0 W/m2
20:56 3.1 °C 0.7 °C 1017.8 hPa East 3.2 km/h 4.8 km/h 84% 0 mm 0 W/m2
21:02 3.1 °C 0.6 °C 1017.5 hPa East 1.6 km/h 8 km/h 84% 0 mm 0 W/m2
21:08 3 °C 0.7 °C 1017.8 hPa ESE 1.6 km/h 8 km/h 85% 0 mm 0 W/m2
21:14 2.9 °C 0.7 °C 1018.2 hPa SE 3.2 km/h 4.8 km/h 85% 0 mm 0 W/m2
21:20 2.9 °C 0.6 °C 1018.5 hPa SE 4.8 km/h 4.8 km/h 85% 0 mm 0 W/m2
21:26 2.9 °C 0.6 °C 1018.8 hPa SE 4.8 km/h 4.8 km/h 85% 0 mm 0 W/m2
21:32 2.8 °C 0.6 °C 1019.2 hPa SSE 1.6 km/h 3.2 km/h 85% 0 mm 0 W/m2
21:38 2.8 °C 0.5 °C 1019.2 hPa SE 3.2 km/h 3.2 km/h 85% 0 mm 0 W/m2
21:44 2.7 °C 0.6 °C 1019.2 hPa SE 1.6 km/h 3.2 km/h 86% 2.03 mm 0 W/m2
21:50 2.6 °C 0.7 °C 1019.2 hPa NE 1.6 km/h 1.6 km/h 87% 3.3 mm 0 W/m2
21:56 2.5 °C 0.6 °C 1019.2 hPa NE 3.2 km/h 4.8 km/h 87% 2.54 mm 0 W/m2
22:02 2.4 °C 0.7 °C 1019.2 hPa NE 1.6 km/h 3.2 km/h 88% 1.52 mm 0 W/m2
22:08 2.3 °C 0.6 °C 1019.2 hPa ENE 3.2 km/h 4.8 km/h 88% 2.54 mm 0 W/m2
22:14 2.2 °C 0.4 °C 1019.2 hPa NE 3.2 km/h 4.8 km/h 88% 2.03 mm 0 W/m2
22:20 2.1 °C 0.3 °C 1018.8 hPa ENE 4.8 km/h 8 km/h 88% 1.52 mm 0 W/m2
22:26 2.1 °C 0.4 °C 1018.2 hPa ENE 4.8 km/h 8 km/h 89% 2.79 mm 0 W/m2
22:32 1.9 °C 0.3 °C 1018.2 hPa ENE 4.8 km/h 6.4 km/h 89% 3.81 mm 0 W/m2
22:38 1.8 °C 0.2 °C 1018.5 hPa ENE 4.8 km/h 6.4 km/h 89% 2.54 mm 0 W/m2
22:44 1.7 °C 0.1 °C 1017.8 hPa ENE 4.8 km/h 12.9 km/h 89% 3.05 mm 0 W/m2
22:50 1.6 °C 0.1 °C 1017.5 hPa ENE 6.4 km/h 16.1 km/h 90% 3.56 mm 0 W/m2
22:56 1.3 °C -0.1 °C 1017.5 hPa ENE 8 km/h 16.1 km/h 90% 2.54 mm 0 W/m2
23:02 1.1 °C -0.3 °C 1018.2 hPa ENE 6.4 km/h 8 km/h 90% 2.79 mm 0 W/m2
23:08 0.9 °C -0.6 °C 1018.5 hPa NNE 3.2 km/h 8 km/h 90% 2.54 mm 0 W/m2
23:14 0.8 °C -0.6 °C 1018.5 hPa NE 3.2 km/h 3.2 km/h 90% 1.27 mm 0 W/m2
23:20 0.7 °C -0.8 °C 1018.8 hPa NNE 3.2 km/h 3.2 km/h 90% 0 mm 0 W/m2
23:26 0.5 °C -0.9 °C 1019.2 hPa NNE 4.8 km/h 9.7 km/h 90% 0 mm 0 W/m2
23:32 0.3 °C -0.9 °C 1018.5 hPa ENE 4.8 km/h 8 km/h 91% 0 mm 0 W/m2
23:38 0.2 °C -1.1 °C 1018.2 hPa East 4.8 km/h 8 km/h 91% 0 mm 0 W/m2
23:44 0.2 °C -1.1 °C 1018.2 hPa ENE 4.8 km/h 8 km/h 91% 0 mm 0 W/m2
23:56 0.2 °C -0.9 °C 1018.2 hPa ENE 6.4 km/h 12.9 km/h 92% 0 mm 0 W/m2
Country Meadow, Clay, NY, USA
Compliments of Weather Underground - 2 mb